createdAt,value
2022-09-11T00:01:40.402Z,75782.44
2022-09-11T00:04:08.069Z,75763.94
2022-09-11T00:06:35.256Z,75778.31
2022-09-11T00:09:03.457Z,75792.72
2022-09-11T00:11:32.599Z,75780.38
2022-09-11T00:13:59.917Z,75786.53
2022-09-11T00:16:28.666Z,75790.66
2022-09-11T00:18:56.495Z,75798.88
2022-09-11T00:21:23.510Z,75802.97
2022-09-11T00:23:50.540Z,75794.75
2022-09-11T00:26:17.702Z,75792.72
2022-09-11T00:28:45.357Z,75796.81
2022-09-11T00:31:13.454Z,75794.75
2022-09-11T00:33:42.069Z,75794.75
2022-09-11T00:36:11.349Z,75794.75
2022-09-11T00:38:38.529Z,75807.09
2022-09-11T00:41:07.370Z,75805.03
2022-09-11T00:43:53.649Z,75807.09
2022-09-11T00:46:21.031Z,75794.75
2022-09-11T00:48:50.995Z,75807.09
2022-09-11T00:51:19.313Z,75794.75
2022-09-11T00:53:46.795Z,75790.66
2022-09-11T00:56:13.850Z,75786.53
2022-09-11T00:58:42.786Z,75782.44
2022-09-11T01:01:10.638Z,75796.81
2022-09-11T01:03:37.872Z,75807.09
2022-09-11T01:06:05.170Z,75811.22
2022-09-11T01:08:36.460Z,75802.97
2022-09-11T01:11:08.724Z,75807.09
2022-09-11T01:13:56.202Z,75831.75
2022-09-11T01:16:30.029Z,75839.97
2022-09-11T01:19:01.144Z,75839.97
2022-09-11T01:21:52.406Z,75823.53
2022-09-11T01:24:23.826Z,75835.88
2022-09-11T01:26:59.278Z,75848.19
2022-09-11T01:29:26.269Z,75819.44
2022-09-11T01:31:57.891Z,75817.38
2022-09-11T01:34:29.560Z,75827.66
2022-09-11T01:36:58.192Z,75844.09
2022-09-11T01:39:25.886Z,75852.31
2022-09-11T01:41:56.509Z,75856.41
2022-09-11T01:44:26.253Z,75856.41
2022-09-11T01:46:53.786Z,75862.59
2022-09-11T01:49:27.840Z,75860.53
2022-09-11T01:51:59.298Z,75839.97
2022-09-11T01:54:27.263Z,75837.91
2022-09-11T01:57:00.281Z,75848.19
2022-09-11T01:59:30.276Z,75837.91
2022-09-11T02:02:02.983Z,75811.22
2022-09-11T02:04:31.182Z,75823.53
2022-09-11T02:07:04.015Z,75815.31
2022-09-11T02:09:36.258Z,75815.31
2022-09-11T02:12:03.535Z,75807.09
2022-09-11T02:14:32.383Z,75839.97
2022-09-11T02:17:08.880Z,75835.88
2022-09-11T02:19:41.211Z,75839.97
2022-09-11T02:22:08.286Z,75839.97
2022-09-11T02:24:36.451Z,75819.44
2022-09-11T02:27:07.198Z,75835.88
2022-09-11T02:29:34.733Z,75823.53
2022-09-11T02:32:03.795Z,75848.19
2022-09-11T02:34:32.738Z,75835.88
2022-09-11T02:37:08.615Z,75823.53
2022-09-11T02:39:56.046Z,75827.66
2022-09-11T02:42:27.320Z,75823.53
2022-09-11T02:44:58.788Z,75819.44
2022-09-11T02:47:31.231Z,75817.38
2022-09-11T02:50:18.407Z,75831.75
2022-09-11T02:53:02.568Z,75842.03
2022-09-11T02:55:32.113Z,75844.09
2022-09-11T02:58:10.112Z,75852.31
2022-09-11T03:00:37.674Z,75848.19
2022-09-11T03:03:04.752Z,75835.88
2022-09-11T03:05:32.142Z,75831.75
2022-09-11T03:07:59.771Z,75815.31
2022-09-11T03:10:27.700Z,75825.59
2022-09-11T03:12:55.466Z,75835.88
2022-09-11T03:15:23.664Z,75835.88
2022-09-11T03:17:50.732Z,75807.09
2022-09-11T03:20:17.881Z,75819.44
2022-09-11T03:22:45.190Z,75811.22
2022-09-11T03:25:12.258Z,75815.31
2022-09-11T03:27:39.584Z,75798.88
2022-09-11T03:30:07.067Z,75835.88
2022-09-11T03:32:34.542Z,75835.88
2022-09-11T03:35:02.481Z,75821.47
2022-09-11T03:37:29.871Z,75809.16
2022-09-11T03:39:56.973Z,75794.75
2022-09-11T03:42:24.093Z,75798.88
2022-09-11T03:44:51.379Z,75786.53
2022-09-11T03:47:20.449Z,75788.59
2022-09-11T03:49:48.533Z,75794.75
2022-09-11T03:52:15.556Z,75800.94
2022-09-11T03:54:44.116Z,75815.31
2022-09-11T03:57:11.169Z,75798.88
2022-09-11T03:59:39.249Z,75794.75
2022-09-11T04:02:06.320Z,75790.66
2022-09-11T04:04:34.524Z,75786.53
2022-09-11T04:07:01.582Z,75780.38
2022-09-11T04:09:28.707Z,75790.66
2022-09-11T04:11:55.783Z,75782.44
2022-09-11T04:14:22.863Z,75790.66
2022-09-11T04:16:50.106Z,75782.44
2022-09-11T04:19:18.833Z,75782.44
2022-09-11T04:21:45.894Z,75763.94
2022-09-11T04:24:12.992Z,75759.81
2022-09-11T04:26:40.067Z,75757.78
2022-09-11T04:29:07.139Z,75774.22
2022-09-11T04:31:38.414Z,75770.09
2022-09-11T04:34:05.564Z,75766.00
2022-09-11T04:36:33.111Z,75782.44
2022-09-11T04:39:03.097Z,75778.31
2022-09-11T04:41:30.867Z,75768.03
2022-09-11T04:44:02.393Z,75782.44
2022-09-11T04:46:33.530Z,75770.09
2022-09-11T04:49:02.256Z,75770.09
2022-09-11T04:51:30.450Z,75770.09
2022-09-11T04:53:57.975Z,75780.38
2022-09-11T04:56:25.768Z,75759.81
2022-09-11T04:58:54.175Z,75766.00
2022-09-11T05:01:21.427Z,75747.50
2022-09-11T05:03:48.503Z,75737.22
2022-09-11T05:06:16.424Z,75741.31
2022-09-11T05:08:44.693Z,75724.88
2022-09-11T05:11:13.515Z,75729.00
2022-09-11T05:13:41.037Z,75745.44
2022-09-11T05:16:09.395Z,75766.00
2022-09-11T05:18:37.078Z,75757.78
2022-09-11T05:21:06.233Z,75763.94
2022-09-11T05:23:35.013Z,75739.28
2022-09-11T05:26:02.477Z,75720.78
2022-09-11T05:28:29.634Z,75720.78
2022-09-11T05:30:56.735Z,75720.78
2022-09-11T05:33:24.795Z,75720.78
2022-09-11T05:35:52.316Z,75708.44
2022-09-11T05:38:19.539Z,75714.59
2022-09-11T05:40:48.388Z,75708.44
2022-09-11T05:43:19.764Z,75729.00
2022-09-11T05:45:53.844Z,75704.34
2022-09-11T05:48:21.069Z,75679.69
2022-09-11T05:50:59.579Z,75667.34
2022-09-11T05:53:27.686Z,75675.56
2022-09-11T05:55:55.254Z,75659.13
2022-09-11T05:58:22.942Z,75663.22
2022-09-11T06:00:50.035Z,75646.78
2022-09-11T06:03:17.583Z,75646.78
2022-09-11T06:05:44.880Z,75659.13
2022-09-11T06:08:11.999Z,75655.00
2022-09-11T06:10:49.012Z,75667.34
2022-09-11T06:13:17.957Z,75634.47
2022-09-11T06:15:49.103Z,75642.69
2022-09-11T06:18:16.267Z,75650.91
2022-09-11T06:20:43.555Z,75622.13
2022-09-11T06:23:10.723Z,75607.75
2022-09-11T06:25:39.185Z,75593.34
2022-09-11T06:28:06.273Z,75576.91
2022-09-11T06:30:33.954Z,75568.69
2022-09-11T06:33:01.242Z,75552.25
2022-09-11T06:35:28.862Z,75531.72
2022-09-11T06:37:55.904Z,75560.47
2022-09-11T06:40:24.663Z,75560.47
2022-09-11T06:42:52.065Z,75535.81
2022-09-11T06:45:19.264Z,75531.72
2022-09-11T06:47:47.356Z,75519.38
2022-09-11T06:50:14.606Z,75527.59
2022-09-11T06:52:42.952Z,75517.31
2022-09-11T06:55:13.502Z,75544.03
2022-09-11T06:57:42.164Z,75572.81
2022-09-11T07:00:10.535Z,75585.13
2022-09-11T07:02:38.145Z,75578.97
2022-09-11T07:05:05.734Z,75568.69
2022-09-11T07:07:34.004Z,75572.81
2022-09-11T07:10:02.894Z,75552.25
2022-09-11T07:12:31.125Z,75535.81
2022-09-11T07:14:58.744Z,75560.47
2022-09-11T07:17:25.794Z,75597.47
2022-09-11T07:19:52.849Z,75568.69
2022-09-11T07:22:20.109Z,75581.03
2022-09-11T07:24:47.312Z,75564.59
2022-09-11T07:27:14.366Z,75539.94
2022-09-11T07:29:41.769Z,75535.81
2022-09-11T07:32:08.870Z,75533.75
2022-09-11T07:34:35.978Z,75544.03
2022-09-11T07:37:03.057Z,75521.44
2022-09-11T07:39:30.121Z,75511.16
2022-09-11T07:41:57.363Z,75511.16
2022-09-11T07:44:24.396Z,75496.78
2022-09-11T07:46:51.564Z,75498.81
2022-09-11T07:49:18.701Z,75511.16
2022-09-11T07:51:46.323Z,75523.50
2022-09-11T07:54:13.371Z,75509.09
2022-09-11T07:56:41.739Z,75502.94
2022-09-11T07:59:08.835Z,75490.59
2022-09-11T08:01:35.910Z,75482.38
2022-09-11T08:04:04.638Z,75453.63
2022-09-11T08:06:33.010Z,75463.88
2022-09-11T08:09:01.744Z,75441.28
2022-09-11T08:11:29.198Z,75457.72
2022-09-11T08:13:56.454Z,75445.41
2022-09-11T08:16:24.742Z,75453.63
2022-09-11T08:18:52.196Z,75476.22
2022-09-11T08:21:19.397Z,75498.81
2022-09-11T08:23:46.570Z,75509.09
2022-09-11T08:26:18.754Z,75494.72
2022-09-11T08:28:45.876Z,75494.72
2022-09-11T08:31:13.090Z,75502.94
2022-09-11T08:33:40.608Z,75507.03
2022-09-11T08:36:09.281Z,75513.22
2022-09-11T08:38:38.137Z,75507.03
2022-09-11T08:41:17.463Z,75511.16
2022-09-11T08:43:46.110Z,75511.16
2022-09-11T08:46:13.137Z,75492.66
2022-09-11T08:48:40.186Z,75470.06
2022-09-11T08:51:08.985Z,75461.84
2022-09-11T08:53:36.954Z,75449.50
2022-09-11T08:56:05.868Z,75453.63
2022-09-11T08:58:36.609Z,75445.41
2022-09-11T09:01:04.192Z,75435.13
2022-09-11T09:03:35.010Z,75482.38
2022-09-11T09:06:08.659Z,75480.34
2022-09-11T09:08:45.927Z,75433.06
2022-09-11T09:11:13.954Z,75433.06
2022-09-11T09:13:54.536Z,75457.72
2022-09-11T09:16:42.429Z,75478.28
2022-09-11T09:19:18.610Z,75465.94
2022-09-11T09:21:48.583Z,75490.59
2022-09-11T09:24:19.490Z,75502.94
2022-09-11T09:26:54.257Z,75529.66
2022-09-11T09:29:24.785Z,75550.19
2022-09-11T09:31:53.446Z,75539.94
2022-09-11T09:34:21.894Z,75535.81
2022-09-11T09:37:05.289Z,75568.69
2022-09-11T09:39:32.409Z,75564.59
2022-09-11T09:42:08.709Z,75583.09
2022-09-11T09:44:35.798Z,75585.13
2022-09-11T09:47:02.878Z,75572.81
2022-09-11T09:49:31.212Z,75560.47
2022-09-11T09:52:04.524Z,75552.25
2022-09-11T09:54:33.956Z,75556.38
2022-09-11T09:57:02.575Z,75548.16
2022-09-11T09:59:34.460Z,75546.09
2022-09-11T10:02:01.798Z,75531.72
2022-09-11T10:04:30.349Z,75552.25
2022-09-11T10:07:11.049Z,75531.72
2022-09-11T10:09:48.600Z,75523.50
2022-09-11T10:12:22.654Z,75486.50
2022-09-11T10:14:57.083Z,75482.38
2022-09-11T10:17:29.292Z,75474.16
2022-09-11T10:19:57.789Z,75480.34
2022-09-11T10:22:26.022Z,75482.38
2022-09-11T10:24:59.461Z,75447.44
2022-09-11T10:27:29.037Z,75406.34
2022-09-11T10:29:56.275Z,75391.97
2022-09-11T10:32:24.668Z,75361.16
2022-09-11T10:34:51.741Z,75350.88
2022-09-11T10:37:29.906Z,75354.97
2022-09-11T10:40:05.926Z,75332.38
2022-09-11T10:42:35.109Z,75359.09
2022-09-11T10:45:08.647Z,75359.09
2022-09-11T10:47:37.337Z,75391.97
2022-09-11T10:50:13.049Z,75387.84
2022-09-11T10:53:07.217Z,75354.97
2022-09-11T10:55:35.504Z,75318.00
2022-09-11T10:58:07.759Z,75301.56
2022-09-11T11:00:35.889Z,75268.66
2022-09-11T11:03:04.255Z,75244.00
2022-09-11T11:05:32.334Z,75204.97
2022-09-11T11:08:17.586Z,75186.47
2022-09-11T11:10:50.971Z,75128.94
2022-09-11T11:13:37.237Z,75096.06
2022-09-11T11:16:04.442Z,74944.00
2022-09-11T11:18:34.267Z,74919.34
2022-09-11T11:21:33.879Z,74933.75
2022-09-11T11:24:01.051Z,74989.22
2022-09-11T11:26:40.229Z,74981.00
2022-09-11T11:29:16.275Z,74997.44
2022-09-11T11:31:44.441Z,74987.16
2022-09-11T11:34:27.315Z,74983.06
2022-09-11T11:37:10.907Z,74985.09
2022-09-11T11:39:48.094Z,75013.88
2022-09-11T11:42:23.345Z,75057.03
2022-09-11T11:44:52.378Z,75017.97
2022-09-11T11:47:20.304Z,75005.66
2022-09-11T11:49:56.806Z,74997.44
2022-09-11T11:52:23.822Z,74997.44
2022-09-11T11:54:53.962Z,74993.31
2022-09-11T11:57:22.335Z,75011.81
2022-09-11T12:00:04.266Z,75059.06
2022-09-11T12:02:34.924Z,75050.88
2022-09-11T12:05:03.433Z,75001.53
2022-09-11T12:07:31.447Z,74981.00
2022-09-11T12:10:02.596Z,74962.50
2022-09-11T12:12:33.885Z,74972.78
2022-09-11T12:15:05.009Z,74956.34
2022-09-11T12:17:36.826Z,74919.34
2022-09-11T12:20:10.648Z,74911.13
2022-09-11T12:22:39.400Z,74911.13
2022-09-11T12:25:18.555Z,74923.47
2022-09-11T12:27:48.879Z,74939.91
2022-09-11T12:30:15.895Z,74935.78
2022-09-11T12:33:00.009Z,74919.34
2022-09-11T12:35:30.118Z,74927.56
2022-09-11T12:38:03.103Z,74944.00
2022-09-11T12:40:39.016Z,74952.22
2022-09-11T12:43:19.108Z,74939.91
2022-09-11T12:45:48.454Z,74915.25
2022-09-11T12:48:16.690Z,74888.53
2022-09-11T12:50:54.275Z,74894.69
2022-09-11T12:53:23.643Z,74874.16
2022-09-11T12:55:55.304Z,74828.94
2022-09-11T12:58:25.427Z,74791.97
2022-09-11T13:01:03.143Z,74750.88
2022-09-11T13:03:31.209Z,74718.00
2022-09-11T13:06:00.114Z,74722.13
2022-09-11T13:08:27.747Z,74722.13
2022-09-11T13:11:15.472Z,74658.44
2022-09-11T13:13:43.894Z,74483.78
2022-09-11T13:16:17.443Z,74335.88
2022-09-11T13:18:45.490Z,74352.31
2022-09-11T13:21:13.655Z,74335.88
2022-09-11T13:23:42.912Z,74290.69
2022-09-11T13:26:15.898Z,74331.78
2022-09-11T13:28:44.255Z,74146.88
2022-09-11T13:31:19.541Z,73966.13
2022-09-11T13:33:49.572Z,73929.16
2022-09-11T13:36:16.864Z,73861.38
2022-09-11T13:38:44.021Z,73785.38
2022-09-11T13:41:15.046Z,73994.88
2022-09-11T13:43:46.288Z,74132.50
2022-09-11T13:46:16.514Z,74280.41
2022-09-11T13:48:43.902Z,74405.72
2022-09-11T13:51:14.702Z,74483.78
2022-09-11T13:53:41.787Z,74539.25
2022-09-11T13:56:28.056Z,74582.41
2022-09-11T13:58:55.160Z,74582.41
2022-09-11T14:01:22.457Z,74623.50
2022-09-11T14:03:49.528Z,74615.28
2022-09-11T14:06:18.940Z,74691.28
2022-09-11T14:08:50.017Z,74685.13
2022-09-11T14:11:21.517Z,74678.97
2022-09-11T14:13:49.765Z,74693.34
2022-09-11T14:16:17.130Z,74697.47
2022-09-11T14:18:52.850Z,74713.91
2022-09-11T14:21:22.936Z,74705.69
2022-09-11T14:23:56.891Z,74705.69
2022-09-11T14:26:24.397Z,74697.47
2022-09-11T14:28:51.452Z,74693.34
2022-09-11T14:31:30.658Z,74705.69
2022-09-11T14:34:12.407Z,74713.91
2022-09-11T14:36:41.740Z,74726.22
2022-09-11T14:39:17.104Z,74740.59
2022-09-11T14:41:45.009Z,74742.66
2022-09-11T14:44:13.189Z,74746.78
2022-09-11T14:46:40.249Z,74773.47
2022-09-11T14:49:09.571Z,74787.88
2022-09-11T14:51:37.863Z,74779.66
2022-09-11T14:54:05.455Z,74775.53
2022-09-11T14:56:32.881Z,74787.88
2022-09-11T14:58:59.942Z,74783.75
2022-09-11T15:01:27.216Z,74755.00
2022-09-11T15:03:54.953Z,74738.56
2022-09-11T15:06:22.076Z,74707.72
2022-09-11T15:08:52.225Z,74732.38
2022-09-11T15:11:20.197Z,74724.16
2022-09-11T15:14:13.348Z,74715.94
2022-09-11T15:16:36.574Z,74728.28
2022-09-11T15:19:03.625Z,74738.56
2022-09-11T15:21:36.780Z,74742.66
2022-09-11T15:24:05.295Z,74742.66
2022-09-11T15:26:37.266Z,74759.09
2022-09-11T15:29:09.909Z,74761.16
2022-09-11T15:31:37.646Z,74804.31
2022-09-11T15:34:05.800Z,74822.78
2022-09-11T15:36:33.438Z,74841.28
2022-09-11T15:39:00.501Z,74861.81
2022-09-11T15:41:28.141Z,74865.94
2022-09-11T15:43:55.307Z,74865.94
2022-09-11T15:46:22.764Z,74865.94
2022-09-11T15:48:50.166Z,74870.03
2022-09-11T15:51:18.083Z,74878.25
2022-09-11T15:53:45.451Z,74896.75
2022-09-11T15:56:13.476Z,74911.13
2022-09-11T15:58:41.646Z,74898.81
2022-09-11T16:01:18.513Z,74898.81
2022-09-11T16:03:49.661Z,74886.47
2022-09-11T16:06:16.697Z,74886.47
2022-09-11T16:08:44.402Z,74888.53
2022-09-11T16:11:12.129Z,74880.31
2022-09-11T16:13:40.609Z,74886.47
2022-09-11T16:16:07.957Z,74915.25
2022-09-11T16:18:37.463Z,74907.03
2022-09-11T16:21:04.935Z,74913.19
2022-09-11T16:23:31.963Z,74931.69
2022-09-11T16:26:01.892Z,74964.56
2022-09-11T16:28:29.071Z,74978.94
2022-09-11T16:30:56.274Z,74993.31
2022-09-11T16:33:24.218Z,75001.53
2022-09-11T16:35:58.501Z,75030.31
2022-09-11T16:38:25.589Z,75038.53
2022-09-11T16:41:00.235Z,75050.88
2022-09-11T16:43:27.555Z,75071.41
2022-09-11T16:45:54.738Z,75083.75
2022-09-11T16:48:21.891Z,75096.06
2022-09-11T16:50:53.450Z,75100.19
2022-09-11T16:53:21.231Z,75100.19
2022-09-11T16:55:48.546Z,75116.63
2022-09-11T16:58:16.222Z,75141.28
2022-09-11T17:00:43.771Z,75149.50
2022-09-11T17:03:10.869Z,75153.59
2022-09-11T17:05:38.022Z,75157.72
2022-09-11T17:08:05.156Z,75147.44
2022-09-11T17:10:34.964Z,75153.59
2022-09-11T17:13:03.170Z,75161.81
2022-09-11T17:15:34.091Z,75159.75
2022-09-11T17:18:01.203Z,75157.72
2022-09-11T17:20:28.372Z,75167.97
2022-09-11T17:22:58.054Z,75161.81
2022-09-11T17:25:25.878Z,75165.94
2022-09-11T17:27:53.087Z,75172.09
2022-09-11T17:30:21.412Z,75178.25
2022-09-11T17:32:48.620Z,75194.69
2022-09-11T17:35:15.758Z,75192.63
2022-09-11T17:37:42.879Z,75190.59
2022-09-11T17:40:10.910Z,75202.91
2022-09-11T17:42:37.985Z,75194.69
2022-09-11T17:45:05.848Z,75186.47
2022-09-11T17:47:33.175Z,75178.25
2022-09-11T17:50:01.531Z,75178.25
2022-09-11T17:52:29.596Z,75165.94
2022-09-11T17:54:56.768Z,75174.16
2022-09-11T17:57:25.562Z,75174.16
2022-09-11T17:59:53.085Z,75190.59
2022-09-11T18:02:21.450Z,75178.25
2022-09-11T18:04:48.601Z,75178.25
2022-09-11T18:07:15.868Z,75163.88
2022-09-11T18:09:42.909Z,75165.94
2022-09-11T18:12:11.359Z,75170.03
2022-09-11T18:14:40.443Z,75161.81
2022-09-11T18:17:07.705Z,75153.59
2022-09-11T18:19:34.916Z,75165.94
2022-09-11T18:22:02.006Z,75165.94
2022-09-11T18:24:29.997Z,75165.94
2022-09-11T18:27:00.757Z,75176.19
2022-09-11T18:29:30.163Z,75186.47
2022-09-11T18:31:57.649Z,75184.41
2022-09-11T18:34:25.525Z,75172.09
2022-09-11T18:36:52.722Z,75170.03
2022-09-11T18:39:21.118Z,75188.53
2022-09-11T18:41:49.667Z,75184.41
2022-09-11T18:44:19.969Z,75182.38
2022-09-11T18:46:47.710Z,75182.38
2022-09-11T18:49:14.958Z,75188.53
2022-09-11T18:51:45.183Z,75196.75
2022-09-11T18:54:15.908Z,75217.31
2022-09-11T18:56:42.938Z,75227.56
2022-09-11T18:59:11.257Z,75239.91
2022-09-11T19:01:40.042Z,75239.91
2022-09-11T19:04:07.896Z,75244.00
2022-09-11T19:06:35.210Z,75252.22
2022-09-11T19:09:02.583Z,75260.44
2022-09-11T19:11:30.054Z,75256.34
2022-09-11T19:14:02.011Z,75256.34
2022-09-11T19:16:29.671Z,75256.34
2022-09-11T19:18:56.861Z,75260.44
2022-09-11T19:21:24.140Z,75264.56
2022-09-11T19:23:53.722Z,75266.63
2022-09-11T19:26:52.194Z,75272.78
2022-09-11T19:29:21.233Z,75281.00
2022-09-11T19:31:48.350Z,75295.38
2022-09-11T19:34:15.528Z,75313.88
2022-09-11T19:36:42.863Z,75305.66
2022-09-11T19:39:10.033Z,75305.66
2022-09-11T19:41:37.948Z,75305.66
2022-09-11T19:44:05.800Z,75305.66
2022-09-11T19:46:33.617Z,75305.66
2022-09-11T19:49:02.979Z,75311.81
2022-09-11T19:51:31.960Z,75305.66
2022-09-11T19:54:00.499Z,75305.66
2022-09-11T19:56:27.862Z,75313.88
2022-09-11T19:58:55.532Z,75322.09
2022-09-11T20:01:23.255Z,75313.88
2022-09-11T20:03:51.000Z,75307.72
2022-09-11T20:06:18.592Z,75305.66
2022-09-11T20:08:46.918Z,75297.44
2022-09-11T20:11:15.610Z,75293.34
2022-09-11T20:13:43.199Z,75293.34
2022-09-11T20:16:12.444Z,75295.38
2022-09-11T20:18:39.606Z,75287.16
2022-09-11T20:21:07.481Z,75285.09
2022-09-11T20:23:34.819Z,75285.09
2022-09-11T20:26:16.398Z,75291.28
2022-09-11T20:28:46.920Z,75293.34
2022-09-11T20:31:14.265Z,75295.38
2022-09-11T20:33:41.722Z,75289.22
2022-09-11T20:36:09.034Z,75289.22
2022-09-11T20:38:36.110Z,75303.59
2022-09-11T20:41:06.993Z,75313.88
2022-09-11T20:43:34.133Z,75320.03
2022-09-11T20:46:03.517Z,75324.16
2022-09-11T20:48:30.669Z,75326.22
2022-09-11T20:51:01.481Z,75334.44
2022-09-11T20:53:28.572Z,75342.66
2022-09-11T20:56:00.527Z,75338.53
2022-09-11T20:58:27.616Z,75334.44
2022-09-11T21:00:55.261Z,75332.38
2022-09-11T21:03:23.212Z,75330.31
2022-09-11T21:05:50.372Z,75344.69
2022-09-11T21:08:17.622Z,75340.59
2022-09-11T21:10:45.127Z,75363.19
2022-09-11T21:13:12.368Z,75350.88
2022-09-11T21:15:43.435Z,75344.69
2022-09-11T21:18:12.670Z,75342.66
2022-09-11T21:20:40.314Z,75348.81
2022-09-11T21:23:07.530Z,75361.16
2022-09-11T21:25:39.797Z,75359.09
2022-09-11T21:28:06.924Z,75346.75
2022-09-11T21:30:37.262Z,75361.16
2022-09-11T21:33:04.441Z,75367.31
2022-09-11T21:35:31.532Z,75367.31
2022-09-11T21:37:58.594Z,75359.09
2022-09-11T21:40:25.624Z,75359.09
2022-09-11T21:42:52.827Z,75352.91
2022-09-11T21:45:20.151Z,75346.75
2022-09-11T21:47:47.218Z,75363.19
2022-09-11T21:50:14.294Z,75367.31
2022-09-11T21:52:42.097Z,75350.88
2022-09-11T21:55:09.255Z,75357.03
2022-09-11T21:57:36.289Z,75352.91
2022-09-11T22:00:03.705Z,75357.03
2022-09-11T22:02:30.828Z,75361.16
2022-09-11T22:04:57.847Z,75379.63
2022-09-11T22:07:24.874Z,75371.41
2022-09-11T22:09:53.537Z,75385.81
2022-09-11T22:12:20.554Z,75379.63
2022-09-11T22:14:50.962Z,75375.53
2022-09-11T22:17:18.038Z,75369.38
2022-09-11T22:19:45.832Z,75373.47
2022-09-11T22:22:13.212Z,75375.53
2022-09-11T22:24:40.656Z,75371.41
2022-09-11T22:27:08.046Z,75367.31
2022-09-11T22:29:35.490Z,75367.31
2022-09-11T22:32:02.915Z,75375.53
2022-09-11T22:34:32.061Z,75379.63
2022-09-11T22:36:59.119Z,75391.97
2022-09-11T22:39:26.280Z,75396.06
2022-09-11T22:41:53.462Z,75391.97
2022-09-11T22:44:20.905Z,75389.91
2022-09-11T22:46:48.893Z,75381.69
2022-09-11T22:49:16.099Z,75371.41
2022-09-11T22:51:43.159Z,75381.69
2022-09-11T22:54:12.293Z,75377.59
2022-09-11T22:56:39.339Z,75367.31
2022-09-11T22:59:06.442Z,75367.31
2022-09-11T23:01:34.424Z,75371.41
2022-09-11T23:04:01.557Z,75363.19
2022-09-11T23:06:48.310Z,75359.09
2022-09-11T23:09:18.404Z,75359.09
2022-09-11T23:11:46.207Z,75377.59
2022-09-11T23:14:14.664Z,75375.53
2022-09-11T23:16:42.020Z,75363.19
2022-09-11T23:19:10.669Z,75361.16
2022-09-11T23:21:37.743Z,75369.38
2022-09-11T23:24:09.124Z,75361.16
2022-09-11T23:26:36.937Z,75367.31
2022-09-11T23:29:04.410Z,75352.91
2022-09-11T23:31:32.574Z,75352.91
2022-09-11T23:34:00.946Z,75346.75
2022-09-11T23:36:28.569Z,75334.44
2022-09-11T23:38:56.067Z,75342.66
2022-09-11T23:41:23.215Z,75338.53
2022-09-11T23:43:50.432Z,75344.69
2022-09-11T23:46:17.555Z,75348.81
2022-09-11T23:48:44.805Z,75350.88
2022-09-11T23:51:12.171Z,75330.31
2022-09-11T23:53:40.180Z,75326.22
2022-09-11T23:56:07.237Z,75318.00
2022-09-11T23:58:39.218Z,75322.09
